Terminal Aerodrome Forecast
Issued by NWS

Home | Current Version | Previous Version | Text Only | Print | Product List | Glossary On
Versions: 1 2 3 4 5 6 7 8 9 10 11 12 13 14 15 16
000
FTUS43 KDVN 082324
TAFBRL
TAF
KBRL 082324Z 0900/0924 23010KT P6SM SKC
     FM090600 27010KT P6SM BKN080
     FM090900 30012KT P6SM BKN030
     FM091200 33015G25KT P6SM SCT035=

USA.gov is the U.S. government's official web portal to all federal, state and local government web resources and services.